createdAt,value
2018-10-15T00:00:19.573Z,6.20
2018-10-15T00:02:47.903Z,5.47
2018-10-15T00:05:16.134Z,8.40
2018-10-15T00:07:44.677Z,8.00
2018-10-15T00:10:12.985Z,6.90
2018-10-15T00:12:41.084Z,5.83
2018-10-15T00:15:14.065Z,9.37
2018-10-15T00:17:42.115Z,6.60
2018-10-15T00:20:10.104Z,9.90
2018-10-15T00:22:38.098Z,7.23
2018-10-15T00:25:06.098Z,10.97
2018-10-15T00:27:34.126Z,10.20
2018-10-15T00:30:02.083Z,8.50
2018-10-15T00:32:30.475Z,10.47
2018-10-15T00:34:58.657Z,8.27
2018-10-15T00:37:26.802Z,11.13
2018-10-15T00:39:54.980Z,11.03
2018-10-15T00:42:23.233Z,8.00
2018-10-15T00:44:51.534Z,10.23
2018-10-15T00:47:20.207Z,7.10
2018-10-15T00:49:48.422Z,7.60
2018-10-15T00:52:16.508Z,6.50
2018-10-15T00:54:45.054Z,17.43
2018-10-15T00:57:13.253Z,7.77
2018-10-15T00:59:41.193Z,8.93
2018-10-15T01:02:09.302Z,9.40
2018-10-15T01:04:37.233Z,12.50
2018-10-15T01:07:05.301Z,8.37
2018-10-15T01:09:33.241Z,7.93
2018-10-15T01:12:01.247Z,8.40
2018-10-15T01:14:29.734Z,10.40
2018-10-15T01:16:58.084Z,9.13
2018-10-15T01:19:26.287Z,12.00
2018-10-15T01:21:54.955Z,15.87
2018-10-15T01:24:23.376Z,9.50
2018-10-15T01:26:51.862Z,13.63
2018-10-15T01:29:20.058Z,11.73
2018-10-15T01:31:48.363Z,7.77
2018-10-15T01:34:16.836Z,9.97
2018-10-15T01:36:45.115Z,10.23
2018-10-15T01:39:16.006Z,10.03
2018-10-15T01:41:44.833Z,9.27
2018-10-15T01:44:13.598Z,13.30
2018-10-15T01:46:41.755Z,11.13
2018-10-15T01:49:09.724Z,11.37
2018-10-15T01:51:37.698Z,7.30
2018-10-15T01:54:05.697Z,10.40
2018-10-15T01:56:33.630Z,13.97
2018-10-15T01:59:01.617Z,13.60
2018-10-15T02:01:29.741Z,9.83
2018-10-15T02:03:58.350Z,8.30
2018-10-15T02:06:26.727Z,10.03
2018-10-15T02:08:54.967Z,9.80
2018-10-15T02:11:23.386Z,9.07
2018-10-15T02:13:51.703Z,11.93
2018-10-15T02:16:20.106Z,8.03
2018-10-15T02:18:48.625Z,9.70
2018-10-15T02:21:16.825Z,18.93
2018-10-15T02:23:44.861Z,8.50
2018-10-15T02:26:12.806Z,9.10
2018-10-15T02:28:40.778Z,10.17
2018-10-15T02:31:08.771Z,13.87
2018-10-15T02:33:36.795Z,25.53
2018-10-15T02:36:04.799Z,22.53
2018-10-15T02:38:32.797Z,9.37
2018-10-15T02:41:00.932Z,12.07
2018-10-15T02:43:29.300Z,16.97
2018-10-15T02:45:57.416Z,12.10
2018-10-15T02:48:25.622Z,14.50
2018-10-15T02:50:53.841Z,20.43
2018-10-15T02:53:22.252Z,13.20
2018-10-15T02:55:50.590Z,13.50
2018-10-15T02:58:18.931Z,15.67
2018-10-15T03:00:47.388Z,12.83
2018-10-15T03:03:15.501Z,23.83
2018-10-15T03:05:43.467Z,14.40
2018-10-15T03:08:11.553Z,15.63
2018-10-15T03:10:39.538Z,10.70
2018-10-15T03:13:07.487Z,10.83
2018-10-15T03:15:36.189Z,17.83
2018-10-15T03:18:04.295Z,20.93
2018-10-15T03:20:32.251Z,17.30
2018-10-15T03:23:00.384Z,17.93
2018-10-15T03:25:28.443Z,15.60
2018-10-15T03:27:56.527Z,19.37
2018-10-15T03:30:24.708Z,13.70
2018-10-15T03:32:52.915Z,18.17
2018-10-15T03:35:21.355Z,14.93
2018-10-15T03:37:49.627Z,17.03
2018-10-15T03:40:17.896Z,21.17
2018-10-15T03:42:46.042Z,13.50
2018-10-15T03:45:14.239Z,12.10
2018-10-15T03:47:42.224Z,15.83
2018-10-15T03:50:10.424Z,17.10
2018-10-15T03:52:38.459Z,14.00
2018-10-15T03:55:06.542Z,15.70
2018-10-15T03:57:34.498Z,49.40
2018-10-15T04:00:02.536Z,21.23
2018-10-15T04:02:30.740Z,23.90
2018-10-15T04:04:58.694Z,17.83
2018-10-15T04:07:26.735Z,22.90
2018-10-15T04:09:54.975Z,13.37
2018-10-15T04:12:23.190Z,48.23
2018-10-15T04:14:51.637Z,15.70
2018-10-15T04:17:20.034Z,12.73
2018-10-15T04:19:48.275Z,16.17
2018-10-15T04:22:16.469Z,21.03
2018-10-15T04:24:44.624Z,23.80
2018-10-15T04:27:12.656Z,20.83
2018-10-15T04:29:40.665Z,17.27
2018-10-15T04:32:08.706Z,13.37
2018-10-15T04:34:36.754Z,12.97
2018-10-15T04:37:04.731Z,17.47
2018-10-15T04:39:32.669Z,19.90
2018-10-15T04:42:00.811Z,22.80
2018-10-15T04:44:29.040Z,34.73
2018-10-15T04:46:57.144Z,17.70
2018-10-15T04:49:25.510Z,29.07
2018-10-15T04:51:53.505Z,21.40
2018-10-15T04:54:21.987Z,27.03
2018-10-15T04:56:50.171Z,18.87
2018-10-15T04:59:18.541Z,13.10
2018-10-15T05:01:47.306Z,16.00
2018-10-15T05:04:15.708Z,19.40
2018-10-15T05:06:43.834Z,14.40
2018-10-15T05:09:11.772Z,14.07
2018-10-15T05:11:39.878Z,22.57
2018-10-15T05:14:08.685Z,18.80
2018-10-15T05:16:37.007Z,23.30
2018-10-15T05:19:04.966Z,22.30
2018-10-15T05:21:33.274Z,23.30
2018-10-15T05:24:01.500Z,12.63
2018-10-15T05:26:29.735Z,16.30
2018-10-15T05:28:57.866Z,23.37
2018-10-15T05:31:26.027Z,13.70
2018-10-15T05:33:54.381Z,20.47
2018-10-15T05:36:23.048Z,14.10
2018-10-15T05:38:51.283Z,13.80
2018-10-15T05:41:19.801Z,19.43
2018-10-15T05:43:48.888Z,18.80
2018-10-15T05:46:17.261Z,21.73
2018-10-15T05:48:45.354Z,25.77
2018-10-15T05:51:13.321Z,16.30
2018-10-15T05:53:41.453Z,17.27
2018-10-15T05:56:09.654Z,10.97
2018-10-15T05:58:37.687Z,13.80
2018-10-15T06:01:05.715Z,25.10
2018-10-15T06:03:33.752Z,19.17
2018-10-15T06:06:01.866Z,18.47
2018-10-15T06:08:31.775Z,17.60
2018-10-15T06:10:59.940Z,18.90
2018-10-15T06:13:28.681Z,19.27
2018-10-15T06:15:59.206Z,16.83
2018-10-15T06:18:27.240Z,27.23
2018-10-15T06:20:55.410Z,24.27
2018-10-15T06:23:31.805Z,15.40
2018-10-15T06:26:01.167Z,17.10
2018-10-15T06:28:29.491Z,16.17
2018-10-15T06:30:58.004Z,19.30
2018-10-15T06:33:26.540Z,19.33
2018-10-15T06:35:54.881Z,21.70
2018-10-15T06:38:23.097Z,26.20
2018-10-15T06:40:51.372Z,28.40
2018-10-15T06:43:21.005Z,19.47
2018-10-15T06:45:49.625Z,17.60
2018-10-15T06:48:19.984Z,21.80
2018-10-15T06:50:48.635Z,16.67
2018-10-15T06:53:18.510Z,22.47
2018-10-15T06:55:49.343Z,14.73
2018-10-15T06:58:20.349Z,30.23
2018-10-15T07:00:49.212Z,21.93
2018-10-15T07:03:20.131Z,25.37
2018-10-15T07:05:48.682Z,31.83
2018-10-15T07:10:58.906Z,17.23
2018-10-15T07:13:27.838Z,22.23
2018-10-15T07:16:08.084Z,33.63
2018-10-15T07:18:36.334Z,20.33
2018-10-15T07:21:04.822Z,34.63
2018-10-15T07:23:33.485Z,19.53
2018-10-15T07:26:01.600Z,27.43
2018-10-15T07:33:48.350Z,17.00
2018-10-15T07:36:17.052Z,37.13
2018-10-15T07:38:45.449Z,35.73
2018-10-15T07:41:13.867Z,24.07
2018-10-15T07:46:31.741Z,16.50
2018-10-15T07:48:59.905Z,20.67
2018-10-15T07:51:28.211Z,22.53
2018-10-15T07:54:03.586Z,19.20
2018-10-15T07:56:31.702Z,23.40
2018-10-15T07:58:59.939Z,23.30
2018-10-15T08:01:29.170Z,19.50
2018-10-15T08:03:57.564Z,17.20
2018-10-15T08:06:26.361Z,12.03
2018-10-15T08:08:55.800Z,23.97
2018-10-15T08:11:24.357Z,32.67
2018-10-15T08:13:52.686Z,21.33
2018-10-15T08:16:21.495Z,22.70
2018-10-15T08:18:49.913Z,17.23
2018-10-15T08:21:18.828Z,15.90
2018-10-15T08:23:47.723Z,24.33
2018-10-15T08:26:16.312Z,24.43
2018-10-15T08:28:44.985Z,22.93
2018-10-15T08:31:13.811Z,20.33
2018-10-15T08:33:45.556Z,43.67
2018-10-15T08:36:14.424Z,26.47
2018-10-15T08:38:42.625Z,19.23
2018-10-15T08:41:11.239Z,16.57
2018-10-15T08:43:39.476Z,30.27
2018-10-15T08:46:08.905Z,16.83
2018-10-15T08:48:36.985Z,19.83
2018-10-15T08:51:05.838Z,20.30
2018-10-15T08:53:33.958Z,15.23
2018-10-15T08:56:02.170Z,17.30
2018-10-15T08:58:30.906Z,17.03
2018-10-15T09:00:59.130Z,22.20
2018-10-15T09:03:28.067Z,34.80
2018-10-15T09:06:02.667Z,15.57
2018-10-15T09:08:31.349Z,16.53
2018-10-15T09:10:59.579Z,27.37
2018-10-15T09:13:29.142Z,26.00
2018-10-15T09:15:57.941Z,45.10
2018-10-15T09:18:26.324Z,23.50
2018-10-15T09:20:54.726Z,44.77
2018-10-15T09:23:23.260Z,49.43
2018-10-15T09:25:51.956Z,16.03
2018-10-15T09:28:20.181Z,15.10
2018-10-15T09:33:21.819Z,29.83
2018-10-15T09:35:51.932Z,13.43
2018-10-15T09:38:20.452Z,15.90
2018-10-15T09:40:49.036Z,15.80
2018-10-15T09:43:18.298Z,13.60
2018-10-15T09:45:47.116Z,27.57
2018-10-15T09:48:15.319Z,16.90
2018-10-15T09:50:44.934Z,21.20
2018-10-15T09:53:14.472Z,15.23
2018-10-15T09:55:43.238Z,20.30
2018-10-15T09:58:11.320Z,16.97
2018-10-15T10:00:44.807Z,12.87
2018-10-15T10:03:13.771Z,15.63
2018-10-15T10:05:41.902Z,11.70
2018-10-15T10:08:10.089Z,14.93
2018-10-15T10:10:38.185Z,21.30
2018-10-15T10:13:06.459Z,22.30
2018-10-15T10:15:34.593Z,22.53
2018-10-15T10:18:02.853Z,16.67
2018-10-15T10:20:30.923Z,13.87
2018-10-15T10:22:59.368Z,10.70
2018-10-15T10:25:27.744Z,13.60
2018-10-15T10:27:56.090Z,24.13
2018-10-15T10:30:24.242Z,16.10
2018-10-15T10:32:52.842Z,11.50
2018-10-15T10:35:42.296Z,10.30
2018-10-15T10:38:11.210Z,12.53
2018-10-15T10:40:39.240Z,17.10
2018-10-15T10:43:07.811Z,8.37
2018-10-15T10:45:36.091Z,18.00
2018-10-15T10:48:04.234Z,9.37
2018-10-15T10:50:34.369Z,14.13
2018-10-15T10:53:02.520Z,14.67
2018-10-15T10:55:30.783Z,11.10
2018-10-15T10:58:10.937Z,8.77
2018-10-15T11:00:45.622Z,18.43
2018-10-15T11:03:14.055Z,6.93
2018-10-15T11:05:43.612Z,17.13
2018-10-15T11:08:11.999Z,12.33
2018-10-15T11:10:40.673Z,12.63
2018-10-15T11:15:46.670Z,8.27
2018-10-15T11:18:14.958Z,14.97
2018-10-15T11:20:44.101Z,12.70
2018-10-15T11:23:12.273Z,12.23
2018-10-15T11:25:41.753Z,11.33
2018-10-15T11:30:48.567Z,9.37
2018-10-15T11:33:17.033Z,21.40
2018-10-15T11:35:48.624Z,18.87
2018-10-15T11:38:22.829Z,13.00
2018-10-15T11:40:51.739Z,14.00
2018-10-15T11:43:20.998Z,25.60
2018-10-15T11:48:30.894Z,13.93
2018-10-15T11:50:59.421Z,10.87
2018-10-15T11:53:27.908Z,9.00
2018-10-15T11:55:56.639Z,8.37
2018-10-15T11:58:26.462Z,12.10
2018-10-15T12:00:54.943Z,8.40
2018-10-15T12:03:23.253Z,12.60
2018-10-15T12:05:51.846Z,7.00
2018-10-15T12:08:22.054Z,14.70
2018-10-15T12:10:50.924Z,12.67
2018-10-15T12:13:19.694Z,14.73
2018-10-15T12:15:48.555Z,9.00
2018-10-15T12:18:17.407Z,10.80
2018-10-15T12:20:49.928Z,10.77
2018-10-15T12:23:18.255Z,9.70
2018-10-15T12:25:47.354Z,9.00
2018-10-15T12:28:16.014Z,13.73
2018-10-15T12:30:44.427Z,7.47
2018-10-15T12:33:13.099Z,7.47
2018-10-15T12:35:41.282Z,14.83
2018-10-15T12:38:10.410Z,11.60
2018-10-15T12:40:38.529Z,12.87
2018-10-15T12:43:06.843Z,13.57
2018-10-15T12:45:40.289Z,8.30
2018-10-15T12:48:13.902Z,11.80
2018-10-15T12:50:45.220Z,9.77
2018-10-15T12:53:14.848Z,14.10
2018-10-15T12:55:43.342Z,14.20
2018-10-15T12:58:19.885Z,8.27
2018-10-15T13:00:48.433Z,8.80
2018-10-15T13:03:16.742Z,11.97
2018-10-15T13:05:52.004Z,7.60
2018-10-15T13:08:20.967Z,11.50
2018-10-15T13:10:49.727Z,12.53
2018-10-15T13:15:53.544Z,10.83
2018-10-15T13:18:22.567Z,12.63
2018-10-15T13:20:51.330Z,11.90
2018-10-15T13:23:20.749Z,10.90
2018-10-15T13:25:49.802Z,18.60
2018-10-15T13:28:17.968Z,12.13
2018-10-15T13:30:46.670Z,8.27
2018-10-15T13:33:15.206Z,9.70
2018-10-15T13:35:43.170Z,15.37
2018-10-15T13:38:11.318Z,10.77
2018-10-15T13:40:42.437Z,9.27
2018-10-15T13:43:10.705Z,11.10
2018-10-15T13:45:39.033Z,12.20
2018-10-15T13:48:07.338Z,7.30
2018-10-15T13:50:36.787Z,9.20
2018-10-15T13:53:05.592Z,6.40
2018-10-15T13:55:34.441Z,16.93
2018-10-15T14:00:44.199Z,12.53
2018-10-15T14:03:13.692Z,19.60
2018-10-15T14:05:42.528Z,7.87
2018-10-15T14:08:10.649Z,7.40
2018-10-15T14:10:38.921Z,10.57
2018-10-15T14:13:09.568Z,15.10
2018-10-15T14:15:39.267Z,12.47
2018-10-15T14:18:08.214Z,12.13
2018-10-15T14:20:36.411Z,7.60
2018-10-15T14:25:48.281Z,8.63
2018-10-15T14:28:16.719Z,10.47
2018-10-15T14:30:45.136Z,25.37
2018-10-15T14:33:13.397Z,10.50
2018-10-15T14:35:43.102Z,11.17
2018-10-15T14:38:13.156Z,12.40
2018-10-15T14:40:41.192Z,6.80
2018-10-15T14:43:09.348Z,6.27
2018-10-15T14:45:37.801Z,10.87
2018-10-15T14:48:06.284Z,10.63
2018-10-15T14:50:34.365Z,14.80
2018-10-15T14:53:02.569Z,13.77
2018-10-15T14:55:30.853Z,11.87
2018-10-15T14:57:59.444Z,9.67
2018-10-15T15:00:28.106Z,9.40
2018-10-15T15:02:56.513Z,12.53
2018-10-15T15:05:26.104Z,14.60
2018-10-15T15:07:55.472Z,9.30
2018-10-15T15:10:29.389Z,24.20
2018-10-15T15:13:03.133Z,11.80
2018-10-15T15:15:32.037Z,12.50
2018-10-15T15:18:00.208Z,12.73
2018-10-15T15:20:28.831Z,16.97
2018-10-15T15:22:57.543Z,15.63
2018-10-15T15:25:25.872Z,16.10
2018-10-15T15:27:54.621Z,18.83
2018-10-15T15:32:57.039Z,18.80
2018-10-15T15:35:25.668Z,17.33
2018-10-15T15:37:54.560Z,17.80
2018-10-15T15:40:24.092Z,15.77
2018-10-15T15:42:52.663Z,13.53
2018-10-15T15:45:22.189Z,19.10
2018-10-15T15:47:51.018Z,13.40
2018-10-15T15:50:23.722Z,15.47
2018-10-15T15:52:52.078Z,17.67
2018-10-15T15:55:20.543Z,17.23
2018-10-15T15:57:49.205Z,14.30
2018-10-15T16:00:18.170Z,17.60
2018-10-15T16:02:46.402Z,18.73
2018-10-15T16:05:15.402Z,15.83
2018-10-15T16:07:53.251Z,17.27
2018-10-15T16:10:21.865Z,20.40
2018-10-15T16:12:50.684Z,17.20
2018-10-15T16:15:19.105Z,21.93
2018-10-15T16:17:50.360Z,14.03
2018-10-15T16:20:21.317Z,20.10
2018-10-15T16:22:50.335Z,24.33
2018-10-15T16:25:18.632Z,21.23
2018-10-15T16:27:47.418Z,12.60
2018-10-15T16:30:16.351Z,21.47
2018-10-15T16:32:49.776Z,19.43
2018-10-15T16:35:18.001Z,14.77
2018-10-15T16:37:46.280Z,12.03
2018-10-15T16:40:15.713Z,13.77
2018-10-15T16:42:43.818Z,18.30
2018-10-15T16:45:13.307Z,14.30
2018-10-15T16:47:42.578Z,20.97
2018-10-15T16:50:16.792Z,19.10
2018-10-15T16:52:45.530Z,22.37
2018-10-15T16:55:15.070Z,18.37
2018-10-15T16:57:43.458Z,16.90
2018-10-15T17:00:12.655Z,20.10
2018-10-15T17:02:41.740Z,27.10
2018-10-15T17:05:11.523Z,20.63
2018-10-15T17:07:39.846Z,22.63
2018-10-15T17:10:09.514Z,27.43
2018-10-15T17:12:37.651Z,25.00
2018-10-15T17:15:08.930Z,21.00
2018-10-15T17:17:37.515Z,17.17
2018-10-15T17:20:06.071Z,16.57
2018-10-15T17:22:39.559Z,20.07
2018-10-15T17:25:08.122Z,15.13
2018-10-15T17:27:36.244Z,15.03
2018-10-15T17:30:04.845Z,22.07
2018-10-15T17:32:34.824Z,34.43
2018-10-15T17:35:03.274Z,21.13
2018-10-15T17:37:31.673Z,18.07
2018-10-15T17:39:59.774Z,17.87
2018-10-15T17:42:28.455Z,24.83
2018-10-15T17:44:57.917Z,19.93
2018-10-15T17:47:27.614Z,16.87
2018-10-15T17:49:56.017Z,17.40
2018-10-15T17:52:25.662Z,24.20
2018-10-15T17:54:54.779Z,17.37
2018-10-15T17:57:22.995Z,16.73
2018-10-15T17:59:51.652Z,22.03
2018-10-15T18:02:19.924Z,27.53
2018-10-15T18:04:48.099Z,18.80
2018-10-15T18:07:17.471Z,22.23
2018-10-15T18:09:45.700Z,27.33
2018-10-15T18:12:14.156Z,16.33
2018-10-15T18:14:42.384Z,27.20
2018-10-15T18:17:10.638Z,17.27
2018-10-15T18:19:38.845Z,22.60
2018-10-15T18:22:07.291Z,27.30
2018-10-15T18:24:35.538Z,17.27
2018-10-15T18:27:03.781Z,15.87
2018-10-15T18:29:32.060Z,16.70
2018-10-15T18:32:00.259Z,23.20
2018-10-15T18:34:28.530Z,22.20
2018-10-15T18:36:56.680Z,18.73
2018-10-15T18:39:25.577Z,31.73
2018-10-15T18:41:54.037Z,20.80
2018-10-15T18:44:22.274Z,19.80
2018-10-15T18:46:51.699Z,22.57
2018-10-15T18:49:20.207Z,17.73
2018-10-15T18:51:49.932Z,25.20
2018-10-15T18:54:18.016Z,27.30
2018-10-15T18:56:46.433Z,23.33
2018-10-15T18:59:18.717Z,39.30
2018-10-15T19:01:47.082Z,24.10
2018-10-15T19:04:15.581Z,28.37
2018-10-15T19:06:44.516Z,30.20
2018-10-15T19:09:12.772Z,33.23
2018-10-15T19:11:41.201Z,30.10
2018-10-15T19:14:09.915Z,19.73
2018-10-15T19:16:38.021Z,30.57
2018-10-15T19:19:06.537Z,21.70
2018-10-15T19:21:34.980Z,19.07
2018-10-15T19:24:03.402Z,20.10
2018-10-15T19:26:32.048Z,28.73
2018-10-15T19:29:00.226Z,24.50
2018-10-15T19:31:28.818Z,25.17
2018-10-15T19:33:57.929Z,24.53
2018-10-15T19:36:26.162Z,25.97
2018-10-15T19:38:55.642Z,34.17
2018-10-15T19:41:24.342Z,25.30
2018-10-15T19:43:52.419Z,28.70
2018-10-15T19:46:20.793Z,19.70
2018-10-15T19:48:49.664Z,27.43
2018-10-15T19:51:19.547Z,19.40
2018-10-15T19:53:49.121Z,29.43
2018-10-15T19:56:17.235Z,21.57
2018-10-15T19:58:45.403Z,18.40
2018-10-15T20:01:13.701Z,23.40
2018-10-15T20:03:41.907Z,22.30
2018-10-15T20:06:10.058Z,22.17
2018-10-15T20:08:38.903Z,35.07
2018-10-15T20:11:07.098Z,25.30
2018-10-15T20:13:35.074Z,25.03
2018-10-15T20:16:03.570Z,39.77
2018-10-15T20:18:31.931Z,26.27
2018-10-15T20:21:01.457Z,30.53
2018-10-15T20:23:29.945Z,26.30
2018-10-15T20:25:59.013Z,34.20
2018-10-15T20:28:28.177Z,25.97
2018-10-15T20:31:02.520Z,24.33
2018-10-15T20:33:31.361Z,26.67
2018-10-15T20:35:59.947Z,22.40
2018-10-15T20:38:28.649Z,27.47
2018-10-15T20:40:57.689Z,21.67
2018-10-15T20:43:27.950Z,24.50
2018-10-15T20:45:58.810Z,25.70
2018-10-15T20:48:27.014Z,29.93
2018-10-15T20:50:55.702Z,27.40
2018-10-15T20:53:24.060Z,30.80
2018-10-15T20:55:52.485Z,26.63
2018-10-15T20:58:21.738Z,40.27
2018-10-15T21:00:51.536Z,27.57
2018-10-15T21:03:20.103Z,28.67
2018-10-15T21:05:48.557Z,25.67
2018-10-15T21:08:20.209Z,38.30
2018-10-15T21:10:48.366Z,36.57
2018-10-15T21:13:16.484Z,28.53
2018-10-15T21:15:44.500Z,27.87
2018-10-15T21:18:12.945Z,27.33
2018-10-15T21:20:40.969Z,32.37
2018-10-15T21:23:08.941Z,36.60
2018-10-15T21:25:36.967Z,26.13
2018-10-15T21:28:05.236Z,26.00
2018-10-15T21:30:33.186Z,32.43
2018-10-15T21:33:01.189Z,32.67
2018-10-15T21:35:29.425Z,31.07
2018-10-15T21:37:57.597Z,23.50
2018-10-15T21:40:25.849Z,23.13
2018-10-15T21:42:53.917Z,44.00
2018-10-15T21:45:22.773Z,26.67
2018-10-15T21:47:51.347Z,33.23
2018-10-15T21:50:20.119Z,27.37
2018-10-15T21:52:48.130Z,23.07
2018-10-15T21:55:16.391Z,39.80
2018-10-15T21:57:44.651Z,33.00
2018-10-15T22:00:14.154Z,33.90
2018-10-15T22:02:42.589Z,28.70
2018-10-15T22:05:10.768Z,26.37
2018-10-15T22:07:39.796Z,23.13
2018-10-15T22:10:13.208Z,22.33
2018-10-15T22:12:42.181Z,38.33
2018-10-15T22:15:11.500Z,36.60
2018-10-15T22:17:40.038Z,29.60
2018-10-15T22:20:09.209Z,30.03
2018-10-15T22:22:37.657Z,36.30
2018-10-15T22:25:06.188Z,29.43
2018-10-15T22:27:34.145Z,30.37
2018-10-15T22:30:02.225Z,29.17
2018-10-15T22:32:30.511Z,33.93
2018-10-15T22:34:58.613Z,31.50
2018-10-15T22:37:27.137Z,28.83
2018-10-15T22:39:55.858Z,27.50
2018-10-15T22:42:24.052Z,46.93
2018-10-15T22:44:52.273Z,29.83
2018-10-15T22:47:20.450Z,27.10
2018-10-15T22:49:48.655Z,32.83
2018-10-15T22:52:16.590Z,37.70
2018-10-15T22:54:44.893Z,34.83
2018-10-15T22:57:12.893Z,27.83
2018-10-15T22:59:40.910Z,27.70
2018-10-15T23:02:10.152Z,29.83
2018-10-15T23:04:38.407Z,28.60
2018-10-15T23:07:07.129Z,29.60
2018-10-15T23:09:35.128Z,33.23
2018-10-15T23:12:03.084Z,33.87
2018-10-15T23:14:31.171Z,26.77
2018-10-15T23:16:59.291Z,27.50
2018-10-15T23:19:27.344Z,30.50
2018-10-15T23:21:55.473Z,27.70
2018-10-15T23:24:23.853Z,52.13
2018-10-15T23:26:52.670Z,31.10
2018-10-15T23:29:20.782Z,24.93
2018-10-15T23:31:48.928Z,24.97
2018-10-15T23:34:17.093Z,35.03
2018-10-15T23:36:45.201Z,32.37
2018-10-15T23:39:13.898Z,32.50
2018-10-15T23:41:41.969Z,29.03
2018-10-15T23:44:09.945Z,27.33
2018-10-15T23:46:37.876Z,31.93
2018-10-15T23:49:05.866Z,33.13
2018-10-15T23:51:33.943Z,41.37
2018-10-15T23:54:01.869Z,25.67
2018-10-15T23:56:30.043Z,36.53
2018-10-15T23:58:58.171Z,28.53
